Terminal Aerodrome Forecast
Issued by NWS Wilmington, OH

Current Version | Previous Version | Graphics & Text | Print | Product List | Glossary On
Versions: 1 2 3 4 5 6 7 8 9 10 11 12 13 14 15 16 17 18 19
000
FTUS41 KILN 262100 AAA
TAFDAY
TAF AMD
KDAY 262100Z 2621/2718 28005KT P6SM OVC060
     FM270600 03004KT P6SM SCT045
     FM271400 06004KT P6SM BKN040=

USA.gov is the U.S. government's official web portal to all federal, state and local government web resources and services.